createdAt,value
2019-02-15T00:00:09.213Z,9.40
2019-02-15T00:02:37.658Z,8.93
2019-02-15T00:05:07.227Z,8.93
2019-02-15T00:07:35.715Z,8.97
2019-02-15T00:10:05.417Z,9.30
2019-02-15T00:12:33.911Z,10.20
2019-02-15T00:15:02.383Z,9.20
2019-02-15T00:17:34.932Z,9.33
2019-02-15T00:20:05.714Z,9.33
2019-02-15T00:22:34.223Z,9.03
2019-02-15T00:25:02.692Z,9.13
2019-02-15T00:27:31.183Z,9.07
2019-02-15T00:29:59.657Z,9.70
2019-02-15T00:32:28.144Z,8.73
2019-02-15T00:34:56.623Z,8.73
2019-02-15T00:37:25.110Z,8.90
2019-02-15T00:39:53.586Z,9.23
2019-02-15T00:42:22.256Z,9.03
2019-02-15T00:44:50.716Z,8.63
2019-02-15T00:47:26.747Z,8.43
2019-02-15T00:49:56.915Z,8.40
2019-02-15T00:52:36.027Z,8.53
2019-02-15T00:55:07.171Z,9.30
2019-02-15T00:57:55.718Z,8.53
2019-02-15T01:00:25.831Z,8.70
2019-02-15T01:03:01.697Z,8.83
2019-02-15T01:05:43.788Z,8.83
2019-02-15T01:08:20.113Z,7.83
2019-02-15T01:10:50.220Z,8.30
2019-02-15T01:13:18.869Z,8.70
2019-02-15T01:15:47.331Z,9.27
2019-02-15T01:18:15.821Z,8.73
2019-02-15T01:20:44.292Z,9.27
2019-02-15T01:23:12.766Z,8.57
2019-02-15T01:25:42.866Z,7.87
2019-02-15T01:28:13.005Z,8.40
2019-02-15T01:30:55.294Z,8.43
2019-02-15T01:33:28.134Z,7.63
2019-02-15T01:35:58.243Z,8.40
2019-02-15T01:38:28.372Z,9.03
2019-02-15T01:40:58.489Z,8.70
2019-02-15T01:43:40.213Z,8.77
2019-02-15T01:46:09.481Z,8.37
2019-02-15T01:48:37.969Z,8.90
2019-02-15T01:51:06.444Z,8.63
2019-02-15T01:53:34.929Z,9.55
2019-02-15T01:56:03.406Z,8.63
2019-02-15T01:58:31.889Z,8.97
2019-02-15T02:01:00.437Z,8.13
2019-02-15T02:03:28.925Z,8.30
2019-02-15T02:05:57.402Z,9.20
2019-02-15T02:08:26.862Z,9.03
2019-02-15T02:10:55.324Z,8.10
2019-02-15T02:13:24.198Z,8.23
2019-02-15T02:15:52.804Z,8.57
2019-02-15T02:18:21.267Z,8.53
2019-02-15T02:20:49.894Z,8.63
2019-02-15T02:23:18.364Z,8.80
2019-02-15T02:25:46.860Z,8.63
2019-02-15T02:28:15.334Z,8.73
2019-02-15T02:30:43.824Z,8.43
2019-02-15T02:33:12.291Z,8.90
2019-02-15T02:35:40.783Z,8.43
2019-02-15T02:38:09.251Z,8.37
2019-02-15T02:40:37.816Z,8.40
2019-02-15T02:43:06.297Z,8.47
2019-02-15T02:45:34.781Z,7.97
2019-02-15T02:48:03.255Z,8.27
2019-02-15T02:50:31.749Z,8.27
2019-02-15T02:53:00.214Z,8.37
2019-02-15T02:55:28.703Z,8.57
2019-02-15T02:57:57.162Z,8.30
2019-02-15T03:00:33.251Z,8.10
2019-02-15T03:02:55.827Z,7.60
2019-02-15T03:05:24.308Z,8.43
2019-02-15T03:07:52.782Z,8.07
2019-02-15T03:10:21.235Z,8.37
2019-02-15T03:12:49.716Z,8.60
2019-02-15T03:15:18.171Z,8.50
2019-02-15T03:17:46.659Z,8.57
2019-02-15T03:20:15.108Z,8.07
2019-02-15T03:22:43.593Z,8.47
2019-02-15T03:25:12.056Z,8.07
2019-02-15T03:27:40.542Z,8.50
2019-02-15T03:30:10.029Z,7.83
2019-02-15T03:32:38.569Z,8.47
2019-02-15T03:35:09.102Z,8.80
2019-02-15T03:37:41.633Z,8.27
2019-02-15T03:40:11.814Z,7.87
2019-02-15T03:42:40.304Z,8.57
2019-02-15T03:45:09.402Z,7.93
2019-02-15T03:47:37.885Z,8.87
2019-02-15T03:50:08.493Z,7.93
2019-02-15T03:52:36.968Z,8.07
2019-02-15T03:55:06.777Z,8.57
2019-02-15T03:57:35.263Z,8.23
2019-02-15T04:00:05.437Z,7.63
2019-02-15T04:02:33.889Z,7.73
2019-02-15T04:05:02.374Z,8.90
2019-02-15T04:07:30.850Z,9.07
2019-02-15T04:09:59.305Z,8.53
2019-02-15T04:12:27.786Z,9.13
2019-02-15T04:14:56.245Z,8.50
2019-02-15T04:17:24.724Z,8.57
2019-02-15T04:19:53.183Z,8.83
2019-02-15T04:22:21.667Z,8.70
2019-02-15T04:24:50.144Z,8.70
2019-02-15T04:27:18.646Z,8.80
2019-02-15T04:29:47.116Z,8.60
2019-02-15T04:32:15.591Z,8.30
2019-02-15T04:34:44.057Z,8.43
2019-02-15T04:37:12.529Z,8.90
2019-02-15T04:39:41.016Z,8.83
2019-02-15T04:42:09.496Z,9.53
2019-02-15T04:44:42.714Z,8.30
2019-02-15T04:47:08.175Z,8.80
2019-02-15T04:49:36.625Z,7.80
2019-02-15T04:52:05.114Z,8.80
2019-02-15T04:54:33.619Z,8.67
2019-02-15T04:57:02.098Z,8.73
2019-02-15T04:59:30.560Z,9.47
2019-02-15T05:01:59.025Z,9.73
2019-02-15T05:04:27.516Z,8.87
2019-02-15T05:06:55.981Z,8.87
2019-02-15T05:09:24.471Z,8.50
2019-02-15T05:11:52.944Z,9.27
2019-02-15T05:14:21.417Z,8.50
2019-02-15T05:16:49.883Z,9.47
2019-02-15T05:19:18.364Z,8.20
2019-02-15T05:21:46.839Z,9.40
2019-02-15T05:24:15.349Z,8.17
2019-02-15T05:26:43.795Z,8.97
2019-02-15T05:29:12.296Z,9.17
2019-02-15T05:31:40.770Z,8.80
2019-02-15T05:34:09.253Z,8.57
2019-02-15T05:36:37.711Z,9.17
2019-02-15T05:39:08.121Z,9.23
2019-02-15T05:41:36.582Z,9.30
2019-02-15T05:44:05.072Z,8.87
2019-02-15T05:46:33.541Z,9.27
2019-02-15T05:49:02.030Z,9.37
2019-02-15T05:51:30.522Z,8.83
2019-02-15T05:53:58.983Z,9.67
2019-02-15T05:56:27.464Z,9.10
2019-02-15T05:58:55.944Z,10.17
2019-02-15T06:01:25.868Z,9.73
2019-02-15T06:03:54.347Z,9.33
2019-02-15T06:06:22.812Z,9.80
2019-02-15T06:08:51.311Z,10.07
2019-02-15T06:11:19.796Z,10.77
2019-02-15T06:13:48.271Z,12.73
2019-02-15T06:16:16.741Z,10.90
2019-02-15T06:18:45.234Z,10.97
2019-02-15T06:21:13.717Z,10.40
2019-02-15T06:23:42.200Z,10.93
2019-02-15T06:26:10.688Z,9.97
2019-02-15T06:28:39.174Z,10.77
2019-02-15T06:31:07.637Z,10.37
2019-02-15T06:33:36.128Z,9.83
2019-02-15T06:36:04.594Z,10.27
2019-02-15T06:38:35.073Z,9.33
2019-02-15T06:41:03.305Z,9.80
2019-02-15T06:43:31.796Z,9.93
2019-02-15T06:46:00.264Z,10.00
2019-02-15T06:48:28.753Z,10.30
2019-02-15T06:50:57.229Z,9.67
2019-02-15T06:53:25.684Z,9.63
2019-02-15T06:55:54.167Z,9.83
2019-02-15T06:58:22.624Z,10.37
2019-02-15T07:00:52.758Z,10.20
2019-02-15T07:03:25.523Z,9.70
2019-02-15T07:05:54.003Z,9.50
2019-02-15T07:08:22.457Z,10.67
2019-02-15T07:10:50.945Z,10.13
2019-02-15T07:13:19.410Z,9.50
2019-02-15T07:15:48.029Z,10.47
2019-02-15T07:18:16.438Z,10.07
2019-02-15T07:20:44.923Z,10.27
2019-02-15T07:23:13.383Z,11.10
2019-02-15T07:25:41.860Z,9.93
2019-02-15T07:28:10.338Z,10.37
2019-02-15T07:30:38.823Z,10.60
2019-02-15T07:33:07.304Z,10.10
2019-02-15T07:35:35.781Z,10.03
2019-02-15T07:38:04.229Z,10.23
2019-02-15T07:40:32.720Z,10.20
2019-02-15T07:43:01.183Z,11.60
2019-02-15T07:45:29.675Z,10.63
2019-02-15T07:47:58.644Z,10.90
2019-02-15T07:50:27.292Z,10.17
2019-02-15T07:52:55.743Z,11.57
2019-02-15T07:55:24.230Z,11.30
2019-02-15T07:57:52.696Z,10.87
2019-02-15T08:00:21.188Z,10.80
2019-02-15T08:02:49.633Z,10.87
2019-02-15T08:05:18.129Z,10.77
2019-02-15T08:07:46.598Z,11.10
2019-02-15T08:10:15.091Z,10.40
2019-02-15T08:12:43.584Z,9.90
2019-02-15T08:15:12.215Z,10.87
2019-02-15T08:17:40.695Z,10.67
2019-02-15T08:20:11.014Z,10.27
2019-02-15T08:22:39.478Z,10.50
2019-02-15T08:25:08.906Z,10.87
2019-02-15T08:27:37.367Z,10.53
2019-02-15T08:30:11.060Z,10.50
2019-02-15T08:32:39.528Z,9.77
2019-02-15T08:35:10.351Z,9.37
2019-02-15T08:37:38.814Z,10.77
2019-02-15T08:40:10.116Z,10.27
2019-02-15T08:42:38.616Z,9.97
2019-02-15T08:45:10.373Z,9.90
2019-02-15T08:47:39.868Z,9.33
2019-02-15T08:50:13.097Z,9.87
2019-02-15T08:52:41.581Z,9.00
2019-02-15T08:55:11.956Z,8.50
2019-02-15T08:57:40.443Z,8.27
2019-02-15T09:00:13.589Z,9.10
2019-02-15T09:02:42.058Z,8.13
2019-02-15T09:05:12.172Z,8.57
2019-02-15T09:07:40.665Z,8.17
2019-02-15T09:10:11.363Z,8.27
2019-02-15T09:12:39.848Z,8.43
2019-02-15T09:15:11.527Z,8.60
2019-02-15T09:17:40.097Z,8.47
2019-02-15T09:20:10.997Z,8.40
2019-02-15T09:22:39.476Z,8.53
2019-02-15T09:25:10.013Z,8.20
2019-02-15T09:27:40.120Z,8.47
2019-02-15T09:30:11.641Z,9.03
2019-02-15T09:32:40.132Z,8.07
2019-02-15T09:35:11.236Z,7.90
2019-02-15T09:37:39.883Z,8.60
2019-02-15T09:40:10.079Z,8.18
2019-02-15T09:42:38.580Z,7.70
2019-02-15T09:45:10.588Z,7.87
2019-02-15T09:47:39.072Z,7.97
2019-02-15T09:50:12.045Z,8.30
2019-02-15T09:52:39.988Z,9.00
2019-02-15T09:55:08.514Z,8.70
2019-02-15T09:57:37.000Z,8.73
2019-02-15T10:00:08.374Z,8.80
2019-02-15T10:02:36.852Z,9.30
2019-02-15T10:05:06.862Z,8.50
2019-02-15T10:07:35.354Z,8.80
2019-02-15T10:10:04.662Z,8.93
2019-02-15T10:12:33.187Z,8.77
2019-02-15T10:15:01.653Z,8.03
2019-02-15T10:17:30.168Z,8.90
2019-02-15T10:19:58.632Z,8.67
2019-02-15T10:22:27.133Z,8.47
2019-02-15T10:24:55.596Z,8.73
2019-02-15T10:27:24.083Z,8.43
2019-02-15T10:29:52.549Z,8.30
2019-02-15T10:32:21.037Z,8.17
2019-02-15T10:34:49.506Z,8.33
2019-02-15T10:37:17.997Z,8.00
2019-02-15T10:39:46.474Z,7.73
2019-02-15T10:42:14.962Z,8.23
2019-02-15T10:44:43.419Z,7.80
2019-02-15T10:47:14.333Z,7.57
2019-02-15T10:49:42.105Z,7.17
2019-02-15T10:52:10.608Z,7.93
2019-02-15T10:54:39.072Z,7.53
2019-02-15T10:57:07.568Z,8.27
2019-02-15T10:59:36.030Z,8.10
2019-02-15T11:02:04.508Z,7.47
2019-02-15T11:04:32.984Z,7.97
2019-02-15T11:07:01.454Z,7.10
2019-02-15T11:09:29.928Z,7.50
2019-02-15T11:11:58.404Z,7.57
2019-02-15T11:14:26.883Z,7.53
2019-02-15T11:16:55.354Z,7.10
2019-02-15T11:19:23.838Z,6.80
2019-02-15T11:21:52.301Z,7.13
2019-02-15T11:24:20.769Z,6.93
2019-02-15T11:26:49.244Z,6.77
2019-02-15T11:29:17.748Z,6.33
2019-02-15T11:31:46.224Z,6.67
2019-02-15T11:34:14.705Z,7.20
2019-02-15T11:36:43.173Z,7.07
2019-02-15T11:39:11.770Z,6.93
2019-02-15T11:41:40.236Z,6.33
2019-02-15T11:44:08.726Z,6.50
2019-02-15T11:46:37.334Z,6.20
2019-02-15T11:49:05.834Z,5.93
2019-02-15T11:51:34.288Z,5.93
2019-02-15T11:54:02.768Z,6.27
2019-02-15T11:56:31.245Z,6.13
2019-02-15T11:58:59.725Z,6.03
2019-02-15T12:01:28.192Z,6.50
2019-02-15T12:03:56.689Z,6.97
2019-02-15T12:06:25.139Z,6.90
2019-02-15T12:08:53.618Z,6.47
2019-02-15T12:11:22.074Z,6.13
2019-02-15T12:13:50.578Z,6.37
2019-02-15T12:16:19.049Z,5.73
2019-02-15T12:18:47.544Z,6.57
2019-02-15T12:21:16.013Z,6.07
2019-02-15T12:23:44.978Z,6.27
2019-02-15T12:26:13.440Z,6.47
2019-02-15T12:28:41.919Z,6.00
2019-02-15T12:31:10.382Z,6.57
2019-02-15T12:33:38.875Z,5.50
2019-02-15T12:36:07.346Z,6.10
2019-02-15T12:38:35.843Z,6.07
2019-02-15T12:41:04.307Z,6.07
2019-02-15T12:43:32.865Z,6.00
2019-02-15T12:46:01.359Z,6.77
2019-02-15T12:48:29.832Z,5.77
2019-02-15T12:50:58.289Z,5.83
2019-02-15T12:53:26.807Z,5.80
2019-02-15T12:55:55.279Z,6.10
2019-02-15T12:58:24.671Z,5.90
2019-02-15T13:00:53.170Z,6.07
2019-02-15T13:03:21.697Z,5.37
2019-02-15T13:05:50.176Z,5.33
2019-02-15T13:08:18.642Z,5.43
2019-02-15T13:10:47.118Z,5.60
2019-02-15T13:13:15.576Z,5.30
2019-02-15T13:15:44.234Z,5.20
2019-02-15T13:18:12.691Z,4.40
2019-02-15T13:20:41.200Z,4.27
2019-02-15T13:23:09.827Z,4.90
2019-02-15T13:25:38.334Z,4.40
2019-02-15T13:28:06.795Z,4.57
2019-02-15T13:30:35.285Z,4.97
2019-02-15T13:33:03.958Z,4.40
2019-02-15T13:35:32.521Z,4.17
2019-02-15T13:38:00.992Z,4.57
2019-02-15T13:40:29.491Z,3.97
2019-02-15T13:42:57.969Z,4.30
2019-02-15T13:45:26.449Z,3.37
2019-02-15T13:47:54.908Z,3.77
2019-02-15T13:50:23.393Z,3.63
2019-02-15T13:52:51.861Z,3.17
2019-02-15T13:55:20.343Z,2.83
2019-02-15T13:57:48.801Z,2.97
2019-02-15T14:00:18.765Z,3.10
2019-02-15T14:02:47.241Z,3.60
2019-02-15T14:05:15.712Z,3.67
2019-02-15T14:07:44.195Z,3.50
2019-02-15T14:10:14.020Z,3.60
2019-02-15T14:12:42.552Z,3.80
2019-02-15T14:15:11.883Z,3.60
2019-02-15T14:17:44.760Z,3.60
2019-02-15T14:20:12.393Z,3.10
2019-02-15T14:22:40.871Z,3.07
2019-02-15T14:25:11.201Z,3.13
2019-02-15T14:27:39.828Z,3.00
2019-02-15T14:30:11.301Z,3.10
2019-02-15T14:32:39.933Z,2.87
2019-02-15T14:35:10.355Z,3.30
2019-02-15T14:37:38.823Z,3.10
2019-02-15T14:40:09.840Z,3.00
2019-02-15T14:42:38.296Z,3.30
2019-02-15T14:45:09.127Z,3.00
2019-02-15T14:47:37.583Z,3.40
2019-02-15T14:50:08.301Z,3.50
2019-02-15T14:52:36.757Z,3.67
2019-02-15T14:55:07.382Z,3.37
2019-02-15T14:57:35.839Z,4.00
2019-02-15T15:00:06.115Z,3.70
2019-02-15T15:02:34.571Z,3.57
2019-02-15T15:05:03.049Z,3.80
2019-02-15T15:07:31.516Z,3.67
2019-02-15T15:10:00.008Z,19.90
2019-02-15T15:12:29.255Z,9.60
2019-02-15T15:14:57.740Z,9.00
2019-02-15T15:17:26.213Z,7.67
2019-02-15T15:19:54.702Z,6.33
2019-02-15T15:22:23.164Z,5.40
2019-02-15T15:24:51.654Z,4.87
2019-02-15T15:27:20.128Z,4.63
2019-02-15T15:29:50.491Z,4.70
2019-02-15T15:32:18.807Z,4.70
2019-02-15T15:34:47.293Z,4.50
2019-02-15T15:37:16.740Z,4.50
2019-02-15T15:39:45.528Z,4.73
2019-02-15T15:42:13.997Z,5.13
2019-02-15T15:44:42.476Z,4.27
2019-02-15T15:47:10.931Z,3.77
2019-02-15T15:49:39.422Z,4.50
2019-02-15T15:52:07.881Z,5.77
2019-02-15T15:54:36.379Z,4.77
2019-02-15T15:57:04.855Z,5.07
2019-02-15T15:59:33.342Z,5.93
2019-02-15T16:02:01.810Z,5.30
2019-02-15T16:04:30.300Z,6.90
2019-02-15T16:06:58.781Z,6.93
2019-02-15T16:09:27.259Z,5.60
2019-02-15T16:11:55.746Z,5.63
2019-02-15T16:14:24.216Z,5.73
2019-02-15T16:16:52.710Z,5.70
2019-02-15T16:19:21.341Z,5.77
2019-02-15T16:21:49.853Z,6.17
2019-02-15T16:24:18.326Z,5.73
2019-02-15T16:26:46.816Z,5.60
2019-02-15T16:29:15.301Z,7.10
2019-02-15T16:31:43.784Z,7.37
2019-02-15T16:34:12.255Z,6.80
2019-02-15T16:36:40.758Z,7.10
2019-02-15T16:39:09.222Z,7.47
2019-02-15T16:41:37.721Z,7.60
2019-02-15T16:44:06.209Z,6.50
2019-02-15T16:46:34.713Z,7.20
2019-02-15T16:49:03.177Z,7.83
2019-02-15T16:51:31.661Z,7.73
2019-02-15T16:54:00.109Z,6.80
2019-02-15T16:56:28.611Z,6.70
2019-02-15T16:58:57.076Z,6.83
2019-02-15T17:01:25.561Z,7.57
2019-02-15T17:03:54.035Z,7.03
2019-02-15T17:06:23.384Z,7.10
2019-02-15T17:08:52.055Z,6.33
2019-02-15T17:11:20.539Z,7.40
2019-02-15T17:13:49.012Z,7.33
2019-02-15T17:16:17.497Z,7.83
2019-02-15T17:18:51.804Z,8.03
2019-02-15T17:21:16.170Z,8.03
2019-02-15T17:23:44.638Z,8.00
2019-02-15T17:26:13.135Z,7.17
2019-02-15T17:28:41.589Z,8.90
2019-02-15T17:31:10.073Z,8.00
2019-02-15T17:33:38.547Z,9.40
2019-02-15T17:36:07.031Z,9.17
2019-02-15T17:38:35.508Z,10.33
2019-02-15T17:41:04.005Z,10.50
2019-02-15T17:43:32.467Z,9.97
2019-02-15T17:46:00.954Z,11.80
2019-02-15T17:48:29.432Z,11.87
2019-02-15T17:50:57.920Z,10.13
2019-02-15T17:53:26.381Z,9.73
2019-02-15T17:55:54.865Z,9.73
2019-02-15T17:58:23.326Z,9.97
2019-02-15T18:00:51.834Z,10.27
2019-02-15T18:03:20.299Z,10.27
2019-02-15T18:05:48.767Z,10.27
2019-02-15T18:08:17.272Z,10.03
2019-02-15T18:10:45.742Z,8.43
2019-02-15T18:13:14.226Z,8.73
2019-02-15T18:15:42.707Z,10.13
2019-02-15T18:18:11.198Z,13.03
2019-02-15T18:20:39.671Z,11.57
2019-02-15T18:23:08.156Z,11.75
2019-02-15T18:25:36.618Z,10.00
2019-02-15T18:28:05.129Z,12.03
2019-02-15T18:30:33.666Z,9.73
2019-02-15T18:33:02.167Z,10.15
2019-02-15T18:35:30.658Z,10.53
2019-02-15T18:37:59.142Z,9.13
2019-02-15T18:40:27.595Z,11.20
2019-02-15T18:42:56.112Z,10.03
2019-02-15T18:45:24.945Z,8.87
2019-02-15T18:47:53.434Z,9.10
2019-02-15T18:50:21.882Z,8.73
2019-02-15T18:52:50.386Z,8.87
2019-02-15T18:55:18.822Z,9.87
2019-02-15T18:57:47.321Z,10.03
2019-02-15T19:00:17.098Z,10.17
2019-02-15T19:02:48.083Z,10.20
2019-02-15T19:05:16.550Z,11.13
2019-02-15T19:07:45.050Z,13.10
2019-02-15T19:10:18.954Z,10.23
2019-02-15T19:12:47.494Z,10.23
2019-02-15T19:15:17.015Z,11.43
2019-02-15T19:17:45.464Z,11.37
2019-02-15T19:20:15.402Z,11.90
2019-02-15T19:22:43.867Z,11.78
2019-02-15T19:25:14.337Z,11.00
2019-02-15T19:27:42.821Z,8.73
2019-02-15T19:30:20.011Z,8.50
2019-02-15T19:32:48.471Z,10.40
2019-02-15T19:35:17.057Z,11.50
2019-02-15T19:37:45.537Z,10.67
2019-02-15T19:40:16.575Z,11.22
2019-02-15T19:42:46.285Z,12.43
2019-02-15T19:45:14.870Z,9.97
2019-02-15T19:47:43.329Z,8.33
2019-02-15T19:50:14.156Z,9.97
2019-02-15T19:52:42.743Z,9.47
2019-02-15T19:55:11.779Z,11.20
2019-02-15T19:57:40.219Z,8.60
2019-02-15T20:00:17.695Z,8.43
2019-02-15T20:02:46.150Z,8.87
2019-02-15T20:05:14.818Z,8.63
2019-02-15T20:07:43.266Z,10.63
2019-02-15T20:10:14.553Z,9.83
2019-02-15T20:12:43.017Z,8.70
2019-02-15T20:15:13.989Z,7.77
2019-02-15T20:17:42.642Z,8.40
2019-02-15T20:20:13.708Z,9.13
2019-02-15T20:22:42.164Z,9.37
2019-02-15T20:25:12.119Z,12.07
2019-02-15T20:27:40.603Z,12.83
2019-02-15T20:30:21.099Z,10.83
2019-02-15T20:32:49.629Z,10.43
2019-02-15T20:35:18.114Z,9.60
2019-02-15T20:37:46.572Z,7.77
2019-02-15T20:40:15.133Z,8.63
2019-02-15T20:42:44.152Z,10.23
2019-02-15T20:45:15.291Z,10.60
2019-02-15T20:47:43.764Z,9.47
2019-02-15T20:50:13.409Z,11.23
2019-02-15T20:52:41.865Z,10.07
2019-02-15T20:55:12.805Z,10.20
2019-02-15T20:57:41.433Z,10.43
2019-02-15T21:00:12.604Z,10.50
2019-02-15T21:02:41.084Z,10.70
2019-02-15T21:05:10.729Z,10.87
2019-02-15T21:07:39.207Z,10.93
2019-02-15T21:10:10.401Z,10.27
2019-02-15T21:12:39.693Z,9.57
2019-02-15T21:15:10.960Z,10.37
2019-02-15T21:17:39.450Z,9.77
2019-02-15T21:20:10.656Z,8.47
2019-02-15T21:22:39.209Z,8.80
2019-02-15T21:25:13.293Z,9.30
2019-02-15T21:27:41.773Z,9.47
2019-02-15T21:30:12.860Z,11.43
2019-02-15T21:32:41.359Z,10.27
2019-02-15T21:35:09.833Z,8.97
2019-02-15T21:37:38.432Z,9.50
2019-02-15T21:40:12.541Z,9.47
2019-02-15T21:42:41.072Z,8.83
2019-02-15T21:45:11.317Z,9.10
2019-02-15T21:47:39.795Z,8.83
2019-02-15T21:50:16.664Z,8.73
2019-02-15T21:52:44.112Z,9.27
2019-02-15T21:55:12.891Z,9.83
2019-02-15T21:57:41.373Z,9.27
2019-02-15T22:00:12.570Z,10.07
2019-02-15T22:02:41.064Z,10.67
2019-02-15T22:05:09.589Z,10.20
2019-02-15T22:07:38.086Z,10.00
2019-02-15T22:10:09.084Z,9.03
2019-02-15T22:12:37.649Z,9.07
2019-02-15T22:15:09.105Z,8.40
2019-02-15T22:17:37.598Z,9.07
2019-02-15T22:20:09.422Z,11.53
2019-02-15T22:22:37.931Z,10.20
2019-02-15T22:25:07.508Z,9.13
2019-02-15T22:27:36.270Z,8.67
2019-02-15T22:30:10.241Z,9.17
2019-02-15T22:32:38.717Z,9.20
2019-02-15T22:35:08.020Z,8.23
2019-02-15T22:37:36.495Z,9.57
2019-02-15T22:40:24.801Z,9.70
2019-02-15T22:42:53.296Z,10.30
2019-02-15T22:45:21.769Z,9.20
2019-02-15T22:47:50.254Z,9.03
2019-02-15T22:50:18.712Z,9.40
2019-02-15T22:52:47.192Z,10.07
2019-02-15T22:55:15.671Z,10.13
2019-02-15T22:57:44.152Z,9.63
2019-02-15T23:00:31.816Z,9.27
2019-02-15T23:03:00.297Z,9.47
2019-02-15T23:05:28.750Z,9.30
2019-02-15T23:07:57.249Z,9.00
2019-02-15T23:10:25.884Z,10.23
2019-02-15T23:12:54.370Z,9.27
2019-02-15T23:15:22.854Z,9.53
2019-02-15T23:17:51.332Z,9.43
2019-02-15T23:20:19.792Z,10.77
2019-02-15T23:22:48.279Z,9.40
2019-02-15T23:25:16.806Z,9.30
2019-02-15T23:27:45.292Z,8.97
2019-02-15T23:30:13.746Z,9.47
2019-02-15T23:32:42.222Z,9.97
2019-02-15T23:35:10.792Z,9.67
2019-02-15T23:37:39.270Z,9.87
2019-02-15T23:40:07.798Z,9.33
2019-02-15T23:42:36.281Z,9.57
2019-02-15T23:45:05.508Z,9.40
2019-02-15T23:47:33.992Z,9.97
2019-02-15T23:50:02.480Z,9.50
2019-02-15T23:52:30.945Z,8.80
2019-02-15T23:54:59.514Z,9.37
2019-02-15T23:57:27.961Z,8.90
2019-02-15T23:59:56.438Z,9.20
